createdAt,value
2022-08-07T00:01:00.619Z,102692.78
2022-08-07T00:04:25.882Z,102693.44
2022-08-07T00:07:40.180Z,102701.25
2022-08-07T00:10:47.855Z,102694.09
2022-08-07T00:14:04.183Z,102690.16
2022-08-07T00:17:10.305Z,102689.66
2022-08-07T00:20:29.923Z,102690.28
2022-08-07T00:23:41.556Z,102687.56
2022-08-07T00:26:59.026Z,102681.59
2022-08-07T00:30:26.832Z,102680.38
2022-08-07T00:33:34.253Z,102671.84
2022-08-07T00:36:42.985Z,102679.66
2022-08-07T00:39:54.373Z,102664.81
2022-08-07T00:43:00.308Z,102674.00
2022-08-07T00:46:07.998Z,102660.03
2022-08-07T00:49:24.924Z,102658.13
2022-08-07T00:52:39.466Z,102656.78
2022-08-07T00:56:00.355Z,102657.09
2022-08-07T00:59:09.899Z,102652.16
2022-08-07T01:02:28.473Z,102661.34
2022-08-07T01:05:36.519Z,102649.59
2022-08-07T01:08:52.074Z,102650.00
2022-08-07T01:12:10.184Z,102649.03
2022-08-07T01:16:00.422Z,102650.69
2022-08-07T01:18:53.223Z,102652.53
2022-08-07T01:22:03.250Z,102639.91
2022-08-07T01:25:40.410Z,102649.28
2022-08-07T01:28:46.025Z,102649.75
2022-08-07T01:31:59.623Z,102640.38
2022-08-07T01:35:08.411Z,102646.63
2022-08-07T01:38:25.156Z,102640.66
2022-08-07T01:41:34.619Z,102641.69
2022-08-07T01:44:41.996Z,102645.66
2022-08-07T01:48:20.976Z,102644.56
2022-08-07T01:51:58.673Z,102644.22
2022-08-07T01:54:47.912Z,102633.50
2022-08-07T01:58:06.562Z,102634.72
2022-08-07T02:01:59.931Z,102644.19
2022-08-07T02:04:57.691Z,102638.91
2022-08-07T02:08:11.286Z,102639.47
2022-08-07T02:11:31.128Z,102627.63
2022-08-07T02:14:53.471Z,102632.88
2022-08-07T02:18:10.878Z,102642.53
2022-08-07T02:21:18.407Z,102640.06
2022-08-07T02:24:25.391Z,102637.88
2022-08-07T02:27:37.287Z,102636.97
2022-08-07T02:30:47.388Z,102623.00
2022-08-07T02:34:04.022Z,102627.72
2022-08-07T02:37:20.963Z,102627.72
2022-08-07T02:40:30.442Z,102625.03
2022-08-07T02:43:43.800Z,102623.59
2022-08-07T02:46:56.614Z,102622.22
2022-08-07T02:50:02.609Z,102622.66
2022-08-07T02:53:16.166Z,102626.59
2022-08-07T02:56:24.070Z,102621.78
2022-08-07T02:59:35.346Z,102620.94
2022-08-07T03:02:55.060Z,102627.91
2022-08-07T03:06:02.949Z,102625.81
2022-08-07T03:09:11.317Z,102629.41
2022-08-07T03:12:22.690Z,102617.66
2022-08-07T03:15:47.986Z,102627.00
2022-08-07T03:19:03.461Z,102626.84
2022-08-07T03:22:18.904Z,102617.66
2022-08-07T03:25:25.473Z,102621.25
2022-08-07T03:28:37.729Z,102621.78
2022-08-07T03:31:50.044Z,102616.41
2022-08-07T03:35:16.906Z,102612.00
2022-08-07T03:38:29.883Z,102618.59
2022-08-07T03:41:42.475Z,102621.16
2022-08-07T03:44:57.767Z,102615.72
2022-08-07T03:48:10.013Z,102619.44
2022-08-07T03:51:17.474Z,102625.22
2022-08-07T03:54:35.590Z,102618.53
2022-08-07T03:58:34.439Z,102618.34
2022-08-07T04:01:20.885Z,102617.84
2022-08-07T04:04:32.775Z,102614.44
2022-08-07T04:07:46.823Z,102612.25
2022-08-07T04:12:21.312Z,102618.06
2022-08-07T04:14:38.751Z,102615.19
2022-08-07T04:18:31.274Z,102614.72
2022-08-07T04:21:17.437Z,102616.31
2022-08-07T04:24:30.582Z,102616.78
2022-08-07T04:27:44.317Z,102620.53
2022-08-07T04:30:57.098Z,102620.31
2022-08-07T04:34:16.612Z,102623.81
2022-08-07T04:37:24.957Z,102627.38
2022-08-07T04:40:35.732Z,102627.69
2022-08-07T04:44:13.090Z,102633.44
2022-08-07T04:47:58.893Z,102630.94
2022-08-07T04:51:05.781Z,102628.59
2022-08-07T04:54:29.958Z,102639.31
2022-08-07T04:58:11.026Z,102632.69
2022-08-07T05:01:18.839Z,102627.97
2022-08-07T05:04:35.905Z,102635.44
2022-08-07T05:07:56.938Z,102632.94
2022-08-07T05:11:12.008Z,102633.53
2022-08-07T05:14:55.526Z,102631.69
2022-08-07T05:18:00.454Z,102638.03
2022-08-07T05:21:10.770Z,102635.69
2022-08-07T05:24:18.731Z,102645.25
2022-08-07T05:28:16.807Z,102646.56
2022-08-07T05:31:00.966Z,102644.38
2022-08-07T05:34:11.647Z,102644.75
2022-08-07T05:37:25.321Z,102645.25
2022-08-07T05:40:50.584Z,102646.28
2022-08-07T05:44:08.081Z,102634.66
2022-08-07T05:47:19.950Z,102637.34
2022-08-07T05:50:28.950Z,102640.03
2022-08-07T05:54:13.345Z,102635.50
2022-08-07T05:57:00.315Z,102634.31
2022-08-07T06:00:09.286Z,102632.59
2022-08-07T06:03:53.769Z,102633.66
2022-08-07T06:07:03.769Z,102654.38
2022-08-07T06:10:15.103Z,102656.19
2022-08-07T06:14:10.951Z,102655.31
2022-08-07T06:16:55.883Z,102646.09
2022-08-07T06:20:12.375Z,102638.56
2022-08-07T06:23:46.465Z,102639.22
2022-08-07T06:26:43.705Z,102634.69
2022-08-07T06:29:50.076Z,102646.25
2022-08-07T06:32:56.676Z,102636.53
2022-08-07T06:36:06.526Z,102644.97
2022-08-07T06:40:16.174Z,102646.94
2022-08-07T06:42:54.565Z,102640.19
2022-08-07T06:46:31.516Z,102636.34
2022-08-07T06:49:50.915Z,102630.06
2022-08-07T06:53:04.324Z,102635.03
2022-08-07T06:56:15.261Z,102627.81
2022-08-07T07:00:13.246Z,102625.25
2022-08-07T07:02:58.049Z,102629.34
2022-08-07T07:06:11.129Z,102628.50
2022-08-07T07:09:17.379Z,102630.25
2022-08-07T07:12:54.511Z,102635.19
2022-08-07T07:16:05.176Z,102630.34
2022-08-07T07:19:55.204Z,102635.63
2022-08-07T07:24:09.777Z,102643.91
2022-08-07T07:26:34.133Z,102642.63
2022-08-07T07:30:09.430Z,102641.53
2022-08-07T07:33:13.655Z,102646.88
2022-08-07T07:36:22.898Z,102651.94
2022-08-07T07:39:52.048Z,102650.81
2022-08-07T07:43:11.662Z,102647.44
2022-08-07T07:46:40.233Z,102643.22
2022-08-07T07:50:35.099Z,102637.75
2022-08-07T07:53:25.778Z,102642.16
2022-08-07T07:56:33.410Z,102630.34
2022-08-07T07:59:52.548Z,102635.66
2022-08-07T08:03:05.722Z,102622.06
2022-08-07T08:06:13.462Z,102630.50
2022-08-07T08:09:22.911Z,102633.50
2022-08-07T08:12:52.024Z,102630.81
2022-08-07T08:16:01.739Z,102626.13
2022-08-07T08:19:18.170Z,102627.25
2022-08-07T08:22:58.356Z,102616.22
2022-08-07T08:26:23.552Z,102614.06
2022-08-07T08:29:37.361Z,102606.97
2022-08-07T08:33:03.029Z,102598.84
2022-08-07T08:36:12.929Z,102602.66
2022-08-07T08:39:22.581Z,102605.50
2022-08-07T08:42:32.793Z,102609.72
2022-08-07T08:46:00.662Z,102608.84
2022-08-07T08:49:14.633Z,102606.50
2022-08-07T08:52:32.268Z,102602.44
2022-08-07T08:55:54.276Z,102602.06
2022-08-07T08:59:12.903Z,102599.13
2022-08-07T09:02:34.717Z,102589.09
2022-08-07T09:05:47.776Z,102590.16
2022-08-07T09:09:01.624Z,102591.63
2022-08-07T09:12:20.007Z,102590.75
2022-08-07T09:16:22.942Z,102592.06
2022-08-07T09:19:51.106Z,102591.34
2022-08-07T09:24:33.530Z,102589.41
2022-08-07T09:26:47.801Z,102588.09
2022-08-07T09:30:03.182Z,102593.91
2022-08-07T09:33:40.928Z,102587.03
2022-08-07T09:36:59.408Z,102586.06
2022-08-07T09:40:10.524Z,102578.03
2022-08-07T09:43:40.604Z,102585.69
2022-08-07T09:47:50.934Z,102579.91
2022-08-07T09:50:37.290Z,102586.53
2022-08-07T09:53:56.219Z,102575.25
2022-08-07T09:57:18.780Z,102568.09
2022-08-07T10:00:33.265Z,102568.66
2022-08-07T10:04:05.214Z,102570.31
2022-08-07T10:07:31.815Z,102557.09
2022-08-07T10:11:17.277Z,102563.47
2022-08-07T10:14:43.716Z,102540.59
2022-08-07T10:18:26.666Z,102541.06
2022-08-07T10:22:12.516Z,102543.66
2022-08-07T10:25:22.863Z,102535.06
2022-08-07T10:28:55.263Z,102536.41
2022-08-07T10:32:51.291Z,102526.94
2022-08-07T10:36:05.491Z,102527.03
2022-08-07T10:39:42.129Z,102526.91
2022-08-07T10:43:05.832Z,102530.03
2022-08-07T10:46:19.070Z,102525.41
2022-08-07T10:49:49.197Z,102520.34
2022-08-07T10:53:10.389Z,102511.34
2022-08-07T10:56:31.132Z,102518.50
2022-08-07T10:59:52.735Z,102512.72
2022-08-07T11:03:11.176Z,102508.53
2022-08-07T11:06:22.949Z,102505.84
2022-08-07T11:10:07.209Z,102494.41
2022-08-07T11:14:42.665Z,102495.00
2022-08-07T11:16:38.231Z,102488.34
2022-08-07T11:19:51.989Z,102479.50
2022-08-07T11:23:09.227Z,102476.00
2022-08-07T11:26:21.138Z,102474.22
2022-08-07T11:29:43.596Z,102474.81
2022-08-07T11:32:58.553Z,102465.78
2022-08-07T11:36:20.463Z,102458.56
2022-08-07T11:40:03.581Z,102463.91
2022-08-07T11:43:16.138Z,102472.22
2022-08-07T11:46:44.756Z,102460.59
2022-08-07T11:50:31.306Z,102451.56
2022-08-07T11:53:43.426Z,102452.41
2022-08-07T11:57:59.938Z,102444.13
2022-08-07T12:01:05.117Z,102448.66
2022-08-07T12:04:29.319Z,102442.16
2022-08-07T12:07:40.158Z,102444.63
2022-08-07T12:11:08.162Z,102441.56
2022-08-07T12:14:24.582Z,102440.19
2022-08-07T12:17:59.247Z,102436.91
2022-08-07T12:21:55.143Z,102440.31
2022-08-07T12:25:07.831Z,102430.78
2022-08-07T12:28:31.098Z,102432.63
2022-08-07T12:32:01.924Z,102436.16
2022-08-07T12:35:12.950Z,102429.75
2022-08-07T12:38:36.842Z,102432.44
2022-08-07T12:41:51.618Z,102429.00
2022-08-07T12:45:05.676Z,102436.72
2022-08-07T12:48:27.651Z,102428.13
2022-08-07T12:52:11.985Z,102420.28
2022-08-07T12:55:16.601Z,102419.22
2022-08-07T12:58:28.273Z,102411.81
2022-08-07T13:01:58.365Z,102416.59
2022-08-07T13:06:02.814Z,102417.41
2022-08-07T13:08:52.712Z,102410.13
2022-08-07T13:12:10.210Z,102414.75
2022-08-07T13:15:29.349Z,102412.84
2022-08-07T13:18:49.018Z,102413.66
2022-08-07T13:22:09.714Z,102408.53
2022-08-07T13:25:32.222Z,102398.91
2022-08-07T13:28:42.646Z,102403.50
2022-08-07T13:32:00.158Z,102401.50
2022-08-07T13:36:00.733Z,102399.25
2022-08-07T13:39:12.910Z,102390.84
2022-08-07T13:42:28.875Z,102381.44
2022-08-07T13:46:12.897Z,102384.44
2022-08-07T13:49:08.885Z,102382.16
2022-08-07T13:52:40.833Z,102381.47
2022-08-07T13:55:54.810Z,102380.69
2022-08-07T13:59:05.627Z,102379.78
2022-08-07T14:02:29.704Z,102379.34
2022-08-07T14:05:46.283Z,102383.09
2022-08-07T14:08:58.910Z,102380.66
2022-08-07T14:12:27.411Z,102384.44
2022-08-07T14:15:39.315Z,102379.88
2022-08-07T14:18:49.733Z,102372.81
2022-08-07T14:22:12.467Z,102372.72
2022-08-07T14:25:29.448Z,102381.47
2022-08-07T14:28:57.730Z,102378.47
2022-08-07T14:32:09.252Z,102375.50
2022-08-07T14:35:45.664Z,102371.56
2022-08-07T14:38:50.476Z,102377.38
2022-08-07T14:42:20.013Z,102377.09
2022-08-07T14:45:46.896Z,102379.38
2022-08-07T14:48:56.464Z,102382.41
2022-08-07T14:52:10.329Z,102381.97
2022-08-07T14:55:17.474Z,102387.53
2022-08-07T14:58:28.670Z,102375.22
2022-08-07T15:05:19.659Z,102377.53
2022-08-07T15:08:32.411Z,102375.19
2022-08-07T15:11:54.304Z,102381.75
2022-08-07T15:15:21.044Z,102367.03
2022-08-07T15:18:40.220Z,102380.25
2022-08-07T15:22:03.971Z,102373.53
2022-08-07T15:28:42.139Z,102369.25
2022-08-07T15:36:00.759Z,102357.69
2022-08-07T15:38:59.138Z,102349.63
2022-08-07T15:42:45.602Z,102354.50
2022-08-07T15:45:56.230Z,102345.13
2022-08-07T15:52:39.588Z,102335.34
2022-08-07T15:56:02.018Z,102341.44
2022-08-07T15:59:16.518Z,102342.34
2022-08-07T16:02:26.687Z,102343.16
2022-08-07T16:05:36.550Z,102332.81
2022-08-07T16:08:45.781Z,102340.72
2022-08-07T16:12:04.090Z,102341.94
2022-08-07T16:15:54.521Z,102346.69
2022-08-07T16:19:10.098Z,102327.84
2022-08-07T16:22:54.939Z,102339.09
2022-08-07T16:26:08.467Z,102343.09
2022-08-07T16:30:09.541Z,102345.53
2022-08-07T16:34:02.073Z,102338.03
2022-08-07T16:37:01.961Z,102334.56
2022-08-07T16:40:35.029Z,102334.22
2022-08-07T16:44:08.598Z,102340.75
2022-08-07T16:47:55.928Z,102330.47
2022-08-07T16:51:57.756Z,102333.16
2022-08-07T16:54:55.542Z,102333.22
2022-08-07T16:58:04.383Z,102326.38
2022-08-07T17:01:35.910Z,102328.94
2022-08-07T17:06:01.943Z,102330.25
2022-08-07T17:09:09.512Z,102335.06
2022-08-07T17:12:35.582Z,102343.00
2022-08-07T17:15:54.310Z,102340.16
2022-08-07T17:19:15.851Z,102345.31
2022-08-07T17:22:30.152Z,102336.47
2022-08-07T17:25:57.157Z,102335.47
2022-08-07T17:29:09.665Z,102335.09
2022-08-07T17:32:52.204Z,102327.84
2022-08-07T17:36:04.473Z,102338.03
2022-08-07T17:39:22.627Z,102331.00
2022-08-07T17:42:34.095Z,102340.97
2022-08-07T17:45:44.715Z,102330.38
2022-08-07T17:49:15.010Z,102337.22
2022-08-07T17:52:39.588Z,102336.09
2022-08-07T17:55:55.718Z,102337.75
2022-08-07T17:59:16.851Z,102328.41
2022-08-07T18:02:31.226Z,102335.84
2022-08-07T18:06:01.959Z,102330.69
2022-08-07T18:10:04.602Z,102337.88
2022-08-07T18:13:26.168Z,102339.25
2022-08-07T18:16:58.836Z,102337.84
2022-08-07T18:21:06.658Z,102337.03
2022-08-07T18:23:55.753Z,102342.63
2022-08-07T18:27:38.082Z,102343.72
2022-08-07T18:30:59.449Z,102354.81
2022-08-07T18:34:37.149Z,102352.31
2022-08-07T18:38:57.997Z,102351.50
2022-08-07T18:41:45.107Z,102358.16
2022-08-07T18:45:44.582Z,102355.88
2022-08-07T18:49:23.759Z,102360.34
2022-08-07T18:52:35.608Z,102373.13
2022-08-07T18:55:56.066Z,102364.88
2022-08-07T18:59:47.823Z,102364.28
2022-08-07T19:03:12.034Z,102372.09
2022-08-07T19:06:34.144Z,102366.81
2022-08-07T19:09:56.122Z,102373.00
2022-08-07T19:13:10.136Z,102373.22
2022-08-07T19:17:00.689Z,102382.97
2022-08-07T19:20:04.811Z,102384.88
2022-08-07T19:23:19.404Z,102383.19
2022-08-07T19:27:09.069Z,102386.56
2022-08-07T19:31:03.178Z,102390.38
2022-08-07T19:33:46.950Z,102395.66
2022-08-07T19:37:17.128Z,102396.66
2022-08-07T19:40:31.771Z,102397.69
2022-08-07T19:43:51.251Z,102403.38
2022-08-07T19:47:08.325Z,102408.88
2022-08-07T19:50:44.552Z,102412.88
2022-08-07T19:54:31.668Z,102422.59
2022-08-07T19:58:00.720Z,102418.53
2022-08-07T20:00:59.454Z,102423.59
2022-08-07T20:04:08.578Z,102415.78
2022-08-07T20:07:48.192Z,102426.69
2022-08-07T20:10:55.896Z,102423.09
2022-08-07T20:14:07.279Z,102424.97
2022-08-07T20:17:21.014Z,102434.84
2022-08-07T20:20:29.769Z,102440.09
2022-08-07T20:23:42.169Z,102440.28
2022-08-07T20:26:52.374Z,102440.09
2022-08-07T20:30:02.233Z,102438.19
2022-08-07T20:33:37.011Z,102436.28
2022-08-07T20:36:43.885Z,102441.91
2022-08-07T20:40:03.769Z,102441.47
2022-08-07T20:43:14.651Z,102440.16
2022-08-07T20:46:32.243Z,102434.44
2022-08-07T20:49:59.191Z,102437.19
2022-08-07T20:53:13.413Z,102433.94
2022-08-07T20:56:26.260Z,102436.28
2022-08-07T21:00:07.582Z,102435.19
2022-08-07T21:03:05.748Z,102433.69
2022-08-07T21:06:25.752Z,102444.78
2022-08-07T21:09:52.453Z,102445.38
2022-08-07T21:13:07.451Z,102451.81
2022-08-07T21:16:15.969Z,102450.72
2022-08-07T21:19:32.152Z,102443.69
2022-08-07T21:22:55.425Z,102448.31
2022-08-07T21:26:08.117Z,102451.53
2022-08-07T21:29:19.287Z,102452.28
2022-08-07T21:32:46.569Z,102444.00
2022-08-07T21:36:05.277Z,102448.25
2022-08-07T21:39:46.173Z,102445.72
2022-08-07T21:42:55.870Z,102442.50
2022-08-07T21:46:25.100Z,102448.38
2022-08-07T21:50:03.041Z,102448.97
2022-08-07T21:53:13.834Z,102447.63
2022-08-07T21:56:36.716Z,102451.34
2022-08-07T22:00:05.226Z,102462.03
2022-08-07T22:03:30.951Z,102454.78
2022-08-07T22:06:45.048Z,102462.34
2022-08-07T22:09:55.404Z,102457.91
2022-08-07T22:13:03.490Z,102462.25
2022-08-07T22:16:43.090Z,102463.09
2022-08-07T22:20:02.602Z,102473.75
2022-08-07T22:23:18.291Z,102468.66
2022-08-07T22:26:31.636Z,102473.56
2022-08-07T22:29:48.329Z,102473.84
2022-08-07T22:33:05.624Z,102486.78
2022-08-07T22:36:23.685Z,102481.19
2022-08-07T22:39:53.432Z,102485.56
2022-08-07T22:43:04.190Z,102488.38
2022-08-07T22:47:02.371Z,102484.75
2022-08-07T22:50:20.770Z,102495.84
2022-08-07T22:54:07.301Z,102490.56
2022-08-07T22:57:37.438Z,102495.56
2022-08-07T23:01:05.409Z,102494.13
2022-08-07T23:04:30.108Z,102500.13
2022-08-07T23:07:53.434Z,102508.59
2022-08-07T23:11:19.048Z,102506.16
2022-08-07T23:14:36.002Z,102497.75
2022-08-07T23:18:09.416Z,102496.13
2022-08-07T23:21:29.963Z,102502.25
2022-08-07T23:24:47.672Z,102503.63
2022-08-07T23:28:22.013Z,102497.41
2022-08-07T23:34:18.860Z,102500.00
2022-08-07T23:35:16.709Z,102490.06
2022-08-07T23:38:36.880Z,102495.88
2022-08-07T23:42:07.432Z,102498.63
2022-08-07T23:45:33.413Z,102498.13
2022-08-07T23:49:16.501Z,102492.16
2022-08-07T23:52:59.939Z,102498.38
2022-08-07T23:56:06.385Z,102501.91
